^^
Station Historical Data
Daily Summary for April 3, 2017 Units:  Both    English   Metric
« Previous Day
Next Day »
Daily Weekly Monthly Yearly Custom
  High: Low: Average:
Temperature: 86.7 °F /  30.4 °C 53.8 °F /  12.1 °C 70.3 °F /  21.3 °C
Dew Point: 44.8 °F /  7.1 °C 36.5 °F /  2.5 °C 41.1 °F /  5.1 °C
Humidity: 63% 18% 38%
Wind Speed: 10.1mph /  16.3km/h - 1.5mph /  2.4km/h
Wind Gust: 14.0mph /  22.5km/h - -
Wind- - East
Pressure: 30.40 in /  1029.3 hPa 30.29 in /  1025.6 hPa -
Precipitation: 0.00 in /  0 mm    
Historical Graphs
 
 
Tabular Data for April 3, 2017
Time Temperature Dew Point Pressure Wind Wind Speed Wind Gust Humidity Rainfall Rate (Hourly) solar Conditions
00:00 61.5 °F /  16.4 °C 44.8 °F /  7.1 °C 30.34in /  1027.3hPa Calm   2.0mph /  3.2km/h 54% 0.00in /  0mm 0.0 W/m2
00:06 61.3 °F /  16.3 °C 44.1 °F /  6.7 °C 30.34in /  1027.3hPa Calm     53% 0.00in /  0mm 0.0 W/m2
00:12 61.3 °F /  16.3 °C 44.1 °F /  6.7 °C 30.34in /  1027.3hPa NE 2.9mph /  4.7km/h 3.0mph /  4.8km/h 53% 0.00in /  0mm 0.0 W/m2
00:18 61.3 °F /  16.3 °C 44.6 °F /  7 °C 30.34in /  1027.3hPa East 0.9mph /  1.4km/h 4.0mph /  6.4km/h 54% 0.00in /  0mm 0.0 W/m2
00:24 61.3 °F /  16.3 °C 44.6 °F /  7 °C 30.34in /  1027.3hPa ENE 2.9mph /  4.7km/h 6.0mph /  9.7km/h 54% 0.00in /  0mm 0.0 W/m2
00:30 61.3 °F /  16.3 °C 44.6 °F /  7 °C 30.34in /  1027.3hPa Calm   4.0mph /  6.4km/h 54% 0.00in /  0mm 0.0 W/m2
00:36 61.3 °F /  16.3 °C 44.6 °F /  7 °C 30.34in /  1027.3hPa ENE 0.9mph /  1.4km/h 3.0mph /  4.8km/h 54% 0.00in /  0mm 0.0 W/m2
00:42 61.3 °F /  16.3 °C 44.6 °F /  7 °C 30.34in /  1027.3hPa ESE 2.0mph /  3.2km/h 2.0mph /  3.2km/h 54% 0.00in /  0mm 0.0 W/m2
00:48 61.3 °F /  16.3 °C 44.6 °F /  7 °C 30.34in /  1027.3hPa East 0.9mph /  1.4km/h 3.0mph /  4.8km/h 54% 0.00in /  0mm 0.0 W/m2
00:54 61.2 °F /  16.2 °C 44.4 °F /  6.9 °C 30.34in /  1027.3hPa Calm   3.0mph /  4.8km/h 54% 0.00in /  0mm 0.0 W/m2
01:00 61.0 °F /  16.1 °C 44.2 °F /  6.8 °C 30.34in /  1027.3hPa Calm   2.0mph /  3.2km/h 54% 0.00in /  0mm 0.0 W/m2
01:06 60.6 °F /  15.9 °C 44.4 °F /  6.9 °C 30.34in /  1027.3hPa Calm   3.0mph /  4.8km/h 55% 0.00in /  0mm 0.0 W/m2
01:12 60.4 °F /  15.8 °C 44.2 °F /  6.8 °C 30.34in /  1027.3hPa Calm   2.0mph /  3.2km/h 55% 0.00in /  0mm 0.0 W/m2
01:18 60.3 °F /  15.7 °C 44.1 °F /  6.7 °C 30.34in /  1027.3hPa Calm   2.0mph /  3.2km/h 55% 0.00in /  0mm 0.0 W/m2
01:24 60.1 °F /  15.6 °C 43.9 °F /  6.6 °C 30.34in /  1027.3hPa Calm   1.0mph /  1.6km/h 55% 0.00in /  0mm 0.0 W/m2
01:30 59.9 °F /  15.5 °C 44.2 °F /  6.8 °C 30.33in /  1027hPa Calm   1.0mph /  1.6km/h 56% 0.00in /  0mm 0.0 W/m2
01:36 59.7 °F /  15.4 °C 44.1 °F /  6.7 °C 30.33in /  1027hPa Calm   2.0mph /  3.2km/h 56% 0.00in /  0mm 0.0 W/m2
01:42 59.5 °F /  15.3 °C 43.9 °F /  6.6 °C 30.33in /  1027hPa Calm   1.0mph /  1.6km/h 56% 0.00in /  0mm 0.0 W/m2
01:48 59.5 °F /  15.3 °C 43.9 °F /  6.6 °C 30.33in /  1027hPa Calm   1.0mph /  1.6km/h 56% 0.00in /  0mm 0.0 W/m2
01:54 59.4 °F /  15.2 °C 43.7 °F /  6.5 °C 30.33in /  1027hPa NE 0.9mph /  1.4km/h 1.0mph /  1.6km/h 56% 0.00in /  0mm 0.0 W/m2
02:00 59.2 °F /  15.1 °C 43.9 °F /  6.6 °C 30.33in /  1027hPa Calm   3.0mph /  4.8km/h 57% 0.00in /  0mm 0.0 W/m2
02:06 59.2 °F /  15.1 °C 43.9 °F /  6.6 °C 30.33in /  1027hPa Calm   2.0mph /  3.2km/h 57% 0.00in /  0mm 0.0 W/m2
02:12 58.8 °F /  14.9 °C 43.7 °F /  6.5 °C 30.33in /  1027hPa Calm   2.0mph /  3.2km/h 57% 0.00in /  0mm 0.0 W/m2
02:18 58.8 °F /  14.9 °C 43.7 °F /  6.5 °C 30.33in /  1027hPa Calm   3.0mph /  4.8km/h 57% 0.00in /  0mm 0.0 W/m2
02:24 58.6 °F /  14.8 °C 43.9 °F /  6.6 °C 30.33in /  1027hPa Calm   2.0mph /  3.2km/h 58% 0.00in /  0mm 0.0 W/m2
02:30 58.5 °F /  14.7 °C 43.7 °F /  6.5 °C 30.33in /  1027hPa Calm   3.0mph /  4.8km/h 58% 0.00in /  0mm 0.0 W/m2
02:36 58.5 °F /  14.7 °C 43.7 °F /  6.5 °C 30.33in /  1027hPa ESE 0.9mph /  1.4km/h 1.0mph /  1.6km/h 58% 0.00in /  0mm 0.0 W/m2
02:42 58.3 °F /  14.6 °C 43.2 °F /  6.2 °C 30.33in /  1027hPa Calm   2.0mph /  3.2km/h 57% 0.00in /  0mm 0.0 W/m2
02:48 58.3 °F /  14.6 °C 43.2 °F /  6.2 °C 30.33in /  1027hPa Calm   1.0mph /  1.6km/h 57% 0.00in /  0mm 0.0 W/m2
02:54 58.1 °F /  14.5 °C 42.4 °F /  5.8 °C 30.32in /  1026.6hPa Calm   2.0mph /  3.2km/h 56% 0.00in /  0mm 0.0 W/m2
03:00 58.1 °F /  14.5 °C 43.0 °F /  6.1 °C 30.32in /  1026.6hPa Calm   2.0mph /  3.2km/h 57% 0.00in /  0mm 0.0 W/m2
03:06 57.9 °F /  14.4 °C 42.8 °F /  6 °C 30.32in /  1026.6hPa Calm   2.0mph /  3.2km/h 57% 0.00in /  0mm 0.0 W/m2
03:12 57.9 °F /  14.4 °C 42.8 °F /  6 °C 30.32in /  1026.6hPa Calm   2.0mph /  3.2km/h 57% 0.00in /  0mm 0.0 W/m2
03:18 57.7 °F /  14.3 °C 42.6 °F /  5.9 °C 30.32in /  1026.6hPa Calm   5.0mph /  8km/h 57% 0.00in /  0mm 0.0 W/m2
03:24 57.9 °F /  14.4 °C 42.8 °F /  6 °C 30.32in /  1026.6hPa ENE 2.0mph /  3.2km/h 4.0mph /  6.4km/h 57% 0.00in /  0mm 0.0 W/m2
03:30 57.9 °F /  14.4 °C 42.8 °F /  6 °C 30.32in /  1026.6hPa Calm   1.0mph /  1.6km/h 57% 0.00in /  0mm 0.0 W/m2
03:36 57.9 °F /  14.4 °C 42.8 °F /  6 °C 30.32in /  1026.6hPa East 0.9mph /  1.4km/h 4.0mph /  6.4km/h 57% 0.00in /  0mm 0.0 W/m2
03:42 57.7 °F /  14.3 °C 42.1 °F /  5.6 °C 30.32in /  1026.6hPa East 0.9mph /  1.4km/h 2.0mph /  3.2km/h 56% 0.00in /  0mm 0.0 W/m2
03:48 57.7 °F /  14.3 °C 42.1 °F /  5.6 °C 30.32in /  1026.6hPa Calm   2.0mph /  3.2km/h 56% 0.00in /  0mm 0.0 W/m2
03:54 57.7 °F /  14.3 °C 42.1 °F /  5.6 °C 30.32in /  1026.6hPa ENE 4.9mph /  7.9km/h 5.0mph /  8km/h 56% 0.00in /  0mm 0.0 W/m2
04:00 57.7 °F /  14.3 °C 41.7 °F /  5.4 °C 30.32in /  1026.6hPa ESE 2.9mph /  4.7km/h 5.0mph /  8km/h 55% 0.00in /  0mm 0.0 W/m2
04:06 57.9 °F /  14.4 °C 41.9 °F /  5.5 °C 30.33in /  1027hPa Calm   4.0mph /  6.4km/h 55% 0.00in /  0mm 0.0 W/m2
04:12 57.9 °F /  14.4 °C 41.4 °F /  5.2 °C 30.33in /  1027hPa Calm   1.0mph /  1.6km/h 54% 0.00in /  0mm 0.0 W/m2
04:18 57.9 °F /  14.4 °C 41.9 °F /  5.5 °C 30.33in /  1027hPa East 3.0mph /  4.8km/h 3.0mph /  4.8km/h 55% 0.00in /  0mm 0.0 W/m2
04:24 57.9 °F /  14.4 °C 41.9 °F /  5.5 °C 30.33in /  1027hPa Calm   2.0mph /  3.2km/h 55% 0.00in /  0mm 0.0 W/m2
04:30 57.7 °F /  14.3 °C 41.7 °F /  5.4 °C 30.34in /  1027.3hPa Calm   1.0mph /  1.6km/h 55% 0.00in /  0mm 0.0 W/m2
04:36 57.6 °F /  14.2 °C 41.9 °F /  5.5 °C 30.34in /  1027.3hPa Calm     56% 0.00in /  0mm 0.0 W/m2
04:42 57.4 °F /  14.1 °C 42.3 °F /  5.7 °C 30.34in /  1027.3hPa Calm     57% 0.00in /  0mm 0.0 W/m2
04:48 57.0 °F /  13.9 °C 41.9 °F /  5.5 °C 30.34in /  1027.3hPa Calm     57% 0.00in /  0mm 0.0 W/m2
04:54 56.7 °F /  13.7 °C 42.1 °F /  5.6 °C 30.34in /  1027.3hPa Calm     58% 0.00in /  0mm 0.0 W/m2
05:00 56.5 °F /  13.6 °C 42.3 °F /  5.7 °C 30.34in /  1027.3hPa Calm     59% 0.00in /  0mm 0.0 W/m2
05:06 55.9 °F /  13.3 °C 41.9 °F /  5.5 °C 30.34in /  1027.3hPa Calm     59% 0.00in /  0mm 0.0 W/m2
05:12 55.8 °F /  13.2 °C 42.1 °F /  5.6 °C 30.34in /  1027.3hPa Calm     60% 0.00in /  0mm 0.0 W/m2
05:18 55.4 °F /  13 °C 42.3 °F /  5.7 °C 30.34in /  1027.3hPa Calm     61% 0.00in /  0mm 0.0 W/m2
05:24 55.2 °F /  12.9 °C 42.4 °F /  5.8 °C 30.35in /  1027.7hPa Calm     62% 0.00in /  0mm 0.0 W/m2
05:30 54.9 °F /  12.7 °C 42.1 °F /  5.6 °C 30.35in /  1027.7hPa Calm     62% 0.00in /  0mm 0.0 W/m2
05:36 54.7 °F /  12.6 °C 42.3 °F /  5.7 °C 30.35in /  1027.7hPa Calm     63% 0.00in /  0mm 0.0 W/m2
05:42 54.3 °F /  12.4 °C 42.1 °F /  5.6 °C 30.35in /  1027.7hPa Calm     63% 0.00in /  0mm 0.0 W/m2
05:48 54.0 °F /  12.2 °C 41.7 °F /  5.4 °C 30.35in /  1027.7hPa Calm     63% 0.00in /  0mm 0.0 W/m2
05:54 54.0 °F /  12.2 °C 41.7 °F /  5.4 °C 30.35in /  1027.7hPa Calm     63% 0.00in /  0mm 0.0 W/m2
06:00 53.8 °F /  12.1 °C 41.0 °F /  5 °C 30.35in /  1027.7hPa Calm   1.0mph /  1.6km/h 62% 0.00in /  0mm 0.0 W/m2
06:06 53.8 °F /  12.1 °C 40.6 °F /  4.8 °C 30.35in /  1027.7hPa Calm     61% 0.00in /  0mm 5.0 W/m2
06:12 53.8 °F /  12.1 °C 40.6 °F /  4.8 °C 30.36in /  1028hPa Calm   2.0mph /  3.2km/h 61% 0.00in /  0mm 9.0 W/m2
06:18 54.0 °F /  12.2 °C 40.8 °F /  4.9 °C 30.36in /  1028hPa Calm     61% 0.00in /  0mm 12.0 W/m2
06:24 54.1 °F /  12.3 °C 40.6 °F /  4.8 °C 30.36in /  1028hPa Calm   1.0mph /  1.6km/h 60% 0.00in /  0mm 14.0 W/m2
06:30 54.3 °F /  12.4 °C 41.2 °F /  5.1 °C 30.37in /  1028.3hPa Calm   2.0mph /  3.2km/h 61% 0.00in /  0mm 16.0 W/m2
06:36 54.7 °F /  12.6 °C 41.5 °F /  5.3 °C 30.37in /  1028.3hPa Calm   1.0mph /  1.6km/h 61% 0.00in /  0mm 19.0 W/m2
06:42 54.9 °F /  12.7 °C 41.2 °F /  5.1 °C 30.37in /  1028.3hPa Calm   2.0mph /  3.2km/h 60% 0.00in /  0mm 21.0 W/m2
06:48 55.4 °F /  13 °C 41.7 °F /  5.4 °C 30.37in /  1028.3hPa ESE 0.9mph /  1.4km/h 4.0mph /  6.4km/h 60% 0.00in /  0mm 23.0 W/m2
06:54 55.9 °F /  13.3 °C 41.9 °F /  5.5 °C 30.37in /  1028.3hPa Calm   3.0mph /  4.8km/h 59% 0.00in /  0mm 25.0 W/m2
07:00 56.5 °F /  13.6 °C 42.3 °F /  5.7 °C 30.37in /  1028.3hPa Calm   2.0mph /  3.2km/h 59% 0.00in /  0mm 26.0 W/m2
07:06 57.0 °F /  13.9 °C 42.8 °F /  6 °C 30.37in /  1028.3hPa Calm   1.0mph /  1.6km/h 59% 0.00in /  0mm 26.0 W/m2
07:12 57.6 °F /  14.2 °C 43.3 °F /  6.3 °C 30.37in /  1028.3hPa Calm   2.0mph /  3.2km/h 59% 0.00in /  0mm 28.0 W/m2
07:18 58.3 °F /  14.6 °C 43.2 °F /  6.2 °C 30.38in /  1028.7hPa Calm   1.0mph /  1.6km/h 57% 0.00in /  0mm 30.0 W/m2
07:24 59.2 °F /  15.1 °C 43.9 °F /  6.6 °C 30.38in /  1028.7hPa Calm   2.0mph /  3.2km/h 57% 0.00in /  0mm 32.0 W/m2
07:30 60.1 °F /  15.6 °C 43.9 °F /  6.6 °C 30.38in /  1028.7hPa Calm   2.0mph /  3.2km/h 55% 0.00in /  0mm 33.0 W/m2
07:36 61.0 °F /  16.1 °C 43.7 °F /  6.5 °C 30.38in /  1028.7hPa Calm   1.0mph /  1.6km/h 53% 0.00in /  0mm 33.0 W/m2
07:42 62.1 °F /  16.7 °C 43.2 °F /  6.2 °C 30.38in /  1028.7hPa Calm   3.0mph /  4.8km/h 50% 0.00in /  0mm 37.0 W/m2
07:48 63.3 °F /  17.4 °C 42.8 °F /  6 °C 30.39in /  1029hPa Calm   1.0mph /  1.6km/h 47% 0.00in /  0mm 35.0 W/m2
07:54 64.6 °F /  18.1 °C 42.8 °F /  6 °C 30.39in /  1029hPa NE 0.9mph /  1.4km/h 3.0mph /  4.8km/h 45% 0.00in /  0mm 37.0 W/m2
08:00 65.8 °F /  18.8 °C 42.8 °F /  6 °C 30.39in /  1029hPa North 2.0mph /  3.2km/h 5.0mph /  8km/h 43% 0.00in /  0mm 39.0 W/m2
08:06 66.7 °F /  19.3 °C 42.3 °F /  5.7 °C 30.39in /  1029hPa Calm   3.0mph /  4.8km/h 41% 0.00in /  0mm 40.0 W/m2
08:12 67.6 °F /  19.8 °C 42.4 °F /  5.8 °C 30.39in /  1029hPa NE 2.0mph /  3.2km/h 4.0mph /  6.4km/h 40% 0.00in /  0mm 44.0 W/m2
08:18 68.4 °F /  20.2 °C 42.4 °F /  5.8 °C 30.39in /  1029hPa North 0.9mph /  1.4km/h 1.0mph /  1.6km/h 39% 0.00in /  0mm 42.0 W/m2
08:24 69.1 °F /  20.6 °C 41.7 °F /  5.4 °C 30.39in /  1029hPa NE 2.9mph /  4.7km/h 5.0mph /  8km/h 37% 0.00in /  0mm 42.0 W/m2
08:30 69.8 °F /  21 °C 41.7 °F /  5.4 °C 30.39in /  1029hPa Calm   4.0mph /  6.4km/h 36% 0.00in /  0mm 44.0 W/m2
08:36 70.5 °F /  21.4 °C 42.3 °F /  5.7 °C 30.39in /  1029hPa East 4.0mph /  6.4km/h 4.0mph /  6.4km/h 36% 0.00in /  0mm 46.0 W/m2
08:42 71.1 °F /  21.7 °C 41.4 °F /  5.2 °C 30.39in /  1029hPa NNW 0.9mph /  1.4km/h 6.0mph /  9.7km/h 34% 0.00in /  0mm 67.0 W/m2
08:48 72.0 °F /  22.2 °C 42.8 °F /  6 °C 30.40in /  1029.3hPa NNE 0.9mph /  1.4km/h 4.0mph /  6.4km/h 35% 0.00in /  0mm 605.0 W/m2
08:54 73.0 °F /  22.8 °C 41.4 °F /  5.2 °C 30.39in /  1029hPa Calm   6.0mph /  9.7km/h 32% 0.00in /  0mm 624.0 W/m2
09:00 74.3 °F /  23.5 °C 41.7 °F /  5.4 °C 30.39in /  1029hPa SE 2.9mph /  4.7km/h 6.0mph /  9.7km/h 31% 0.00in /  0mm 643.0 W/m2
09:06 75.2 °F /  24 °C 39.9 °F /  4.4 °C 30.39in /  1029hPa North 0.9mph /  1.4km/h 6.0mph /  9.7km/h 28% 0.00in /  0mm 663.0 W/m2
09:12 76.3 °F /  24.6 °C 39.9 °F /  4.4 °C 30.39in /  1029hPa ENE 4.9mph /  7.9km/h 5.0mph /  8km/h 27% 0.00in /  0mm 680.0 W/m2
09:18 77.2 °F /  25.1 °C 40.6 °F /  4.8 °C 30.39in /  1029hPa ENE 4.9mph /  7.9km/h 8.0mph /  12.9km/h 27% 0.00in /  0mm 696.0 W/m2
09:24 77.7 °F /  25.4 °C 42.1 °F /  5.6 °C 30.39in /  1029hPa North 2.0mph /  3.2km/h 3.0mph /  4.8km/h 28% 0.00in /  0mm 714.0 W/m2
09:30 78.4 °F /  25.8 °C 40.6 °F /  4.8 °C 30.39in /  1029hPa East 2.0mph /  3.2km/h 9.0mph /  14.5km/h 26% 0.00in /  0mm 731.0 W/m2
09:36 78.8 °F /  26 °C 39.9 °F /  4.4 °C 30.39in /  1029hPa NW 4.9mph /  7.9km/h 5.0mph /  8km/h 25% 0.00in /  0mm 742.0 W/m2
09:42 79.2 °F /  26.2 °C 41.4 °F /  5.2 °C 30.38in /  1028.7hPa East 4.9mph /  7.9km/h 9.0mph /  14.5km/h 26% 0.00in /  0mm 758.0 W/m2
09:48 79.5 °F /  26.4 °C 41.5 °F /  5.3 °C 30.38in /  1028.7hPa ENE 2.9mph /  4.7km/h 10.0mph /  16.1km/h 26% 0.00in /  0mm 772.0 W/m2
09:54 79.9 °F /  26.6 °C 41.9 °F /  5.5 °C 30.38in /  1028.7hPa ENE 6.0mph /  9.7km/h 12.0mph /  19.3km/h 26% 0.00in /  0mm 782.0 W/m2
10:00 80.2 °F /  26.8 °C 42.3 °F /  5.7 °C 30.38in /  1028.7hPa NNE 6.9mph /  11.1km/h 9.0mph /  14.5km/h 26% 0.00in /  0mm 795.0 W/m2
10:06 80.4 °F /  26.9 °C 42.4 °F /  5.8 °C 30.38in /  1028.7hPa North 6.0mph /  9.7km/h 13.0mph /  20.9km/h 26% 0.00in /  0mm 807.0 W/m2
10:12 80.4 °F /  26.9 °C 41.4 °F /  5.2 °C 30.38in /  1028.7hPa East 2.0mph /  3.2km/h 9.0mph /  14.5km/h 25% 0.00in /  0mm 817.0 W/m2
10:18 80.6 °F /  27 °C 41.5 °F /  5.3 °C 30.38in /  1028.7hPa NE 2.0mph /  3.2km/h 13.0mph /  20.9km/h 25% 0.00in /  0mm 828.0 W/m2
10:24 81.0 °F /  27.2 °C 41.9 °F /  5.5 °C 30.37in /  1028.3hPa SSE 8.1mph /  13km/h 14.0mph /  22.5km/h 25% 0.00in /  0mm 837.0 W/m2
10:30 81.3 °F /  27.4 °C 42.1 °F /  5.6 °C 30.37in /  1028.3hPa ESE 4.9mph /  7.9km/h 9.0mph /  14.5km/h 25% 0.00in /  0mm 846.0 W/m2
10:36 81.7 °F /  27.6 °C 43.5 °F /  6.4 °C 30.37in /  1028.3hPa NNE 4.9mph /  7.9km/h 10.0mph /  16.1km/h 26% 0.00in /  0mm 856.0 W/m2
10:42 82.0 °F /  27.8 °C 41.7 °F /  5.4 °C 30.37in /  1028.3hPa NNE 2.0mph /  3.2km/h 9.0mph /  14.5km/h 24% 0.00in /  0mm 867.0 W/m2
10:48 82.0 °F /  27.8 °C 42.8 °F /  6 °C 30.37in /  1028.3hPa NE 10.1mph /  16.3km/h 11.0mph /  17.7km/h 25% 0.00in /  0mm 874.0 W/m2
10:54 82.2 °F /  27.9 °C 41.9 °F /  5.5 °C 30.37in /  1028.3hPa SSE 2.0mph /  3.2km/h 9.0mph /  14.5km/h 24% 0.00in /  0mm 877.0 W/m2
11:00 82.4 °F /  28 °C 41.9 °F /  5.5 °C 30.36in /  1028hPa NE 2.9mph /  4.7km/h 10.0mph /  16.1km/h 24% 0.00in /  0mm 884.0 W/m2
11:06 82.6 °F /  28.1 °C 43.2 °F /  6.2 °C 30.36in /  1028hPa ENE 4.9mph /  7.9km/h 10.0mph /  16.1km/h 25% 0.00in /  0mm 891.0 W/m2
11:12 82.8 °F /  28.2 °C 42.3 °F /  5.7 °C 30.36in /  1028hPa SSE 4.9mph /  7.9km/h 12.0mph /  19.3km/h 24% 0.00in /  0mm 896.0 W/m2
11:18 82.8 °F /  28.2 °C 42.3 °F /  5.7 °C 30.35in /  1027.7hPa ENE 0.9mph /  1.4km/h 9.0mph /  14.5km/h 24% 0.00in /  0mm 895.0 W/m2
11:24 83.5 °F /  28.6 °C 41.7 °F /  5.4 °C 30.35in /  1027.7hPa SE 2.0mph /  3.2km/h 11.0mph /  17.7km/h 23% 0.00in /  0mm 902.0 W/m2
11:30 83.5 °F /  28.6 °C 41.7 °F /  5.4 °C 30.35in /  1027.7hPa ESE 4.0mph /  6.4km/h 9.0mph /  14.5km/h 23% 0.00in /  0mm 905.0 W/m2
11:36 83.8 °F /  28.8 °C 42.1 °F /  5.6 °C 30.35in /  1027.7hPa NE 4.0mph /  6.4km/h 11.0mph /  17.7km/h 23% 0.00in /  0mm 907.0 W/m2
11:42 83.8 °F /  28.8 °C 42.1 °F /  5.6 °C 30.35in /  1027.7hPa ESE 2.9mph /  4.7km/h 13.0mph /  20.9km/h 23% 0.00in /  0mm 911.0 W/m2
11:48 84.0 °F /  28.9 °C 42.3 °F /  5.7 °C 30.34in /  1027.3hPa East 4.9mph /  7.9km/h 10.0mph /  16.1km/h 23% 0.00in /  0mm 909.0 W/m2
11:54 84.0 °F /  28.9 °C 42.3 °F /  5.7 °C 30.34in /  1027.3hPa ESE 2.9mph /  4.7km/h 9.0mph /  14.5km/h 23% 0.00in /  0mm 909.0 W/m2
12:00 84.0 °F /  28.9 °C 42.3 °F /  5.7 °C 30.34in /  1027.3hPa NE 4.9mph /  7.9km/h 6.0mph /  9.7km/h 23% 0.00in /  0mm 907.0 W/m2
12:06 84.0 °F /  28.9 °C 41.0 °F /  5 °C 30.34in /  1027.3hPa North 4.9mph /  7.9km/h 10.0mph /  16.1km/h 22% 0.00in /  0mm 902.0 W/m2
12:12 84.2 °F /  29 °C 42.4 °F /  5.8 °C 30.33in /  1027hPa NE 4.9mph /  7.9km/h 10.0mph /  16.1km/h 23% 0.00in /  0mm 905.0 W/m2
12:18 84.6 °F /  29.2 °C 41.5 °F /  5.3 °C 30.33in /  1027hPa SSE 4.9mph /  7.9km/h 9.0mph /  14.5km/h 22% 0.00in /  0mm 900.0 W/m2
12:26 84.6 °F /  29.2 °C 42.6 °F /  5.9 °C 30.32in /  1026.6hPa NNE 2.0mph /  3.2km/h 7.0mph /  11.3km/h 23% 0.00in /  0mm 889.0 W/m2
12:32 84.9 °F /  29.4 °C 41.9 °F /  5.5 °C 30.32in /  1026.6hPa SE 4.9mph /  7.9km/h 8.0mph /  12.9km/h 22% 0.00in /  0mm 895.0 W/m2
12:38 85.3 °F /  29.6 °C 41.0 °F /  5 °C 30.32in /  1026.6hPa ENE 0.9mph /  1.4km/h 11.0mph /  17.7km/h 21% 0.00in /  0mm 881.0 W/m2
12:44 85.3 °F /  29.6 °C 41.0 °F /  5 °C 30.32in /  1026.6hPa NNE 6.9mph /  11.1km/h 9.0mph /  14.5km/h 21% 0.00in /  0mm 879.0 W/m2
12:50 85.3 °F /  29.6 °C 42.1 °F /  5.6 °C 30.31in /  1026.3hPa East 0.9mph /  1.4km/h 8.0mph /  12.9km/h 22% 0.00in /  0mm 875.0 W/m2
12:56 85.3 °F /  29.6 °C 41.0 °F /  5 °C 30.32in /  1026.6hPa NE 4.9mph /  7.9km/h 13.0mph /  20.9km/h 21% 0.00in /  0mm 865.0 W/m2
13:02 85.3 °F /  29.6 °C 42.1 °F /  5.6 °C 30.31in /  1026.3hPa NNE 6.9mph /  11.1km/h 8.0mph /  12.9km/h 22% 0.00in /  0mm 856.0 W/m2
13:08 85.3 °F /  29.6 °C 42.1 °F /  5.6 °C 30.31in /  1026.3hPa Calm   6.0mph /  9.7km/h 22% 0.00in /  0mm 846.0 W/m2
13:14 85.5 °F /  29.7 °C 41.0 °F /  5 °C 30.31in /  1026.3hPa ENE 6.9mph /  11.1km/h 9.0mph /  14.5km/h 21% 0.00in /  0mm 833.0 W/m2
13:20 85.5 °F /  29.7 °C 41.0 °F /  5 °C 30.31in /  1026.3hPa NE 6.0mph /  9.7km/h 8.0mph /  12.9km/h 21% 0.00in /  0mm 828.0 W/m2
13:26 85.8 °F /  29.9 °C 41.4 °F /  5.2 °C 30.31in /  1026.3hPa ENE 2.9mph /  4.7km/h 14.0mph /  22.5km/h 21% 0.00in /  0mm 812.0 W/m2
13:32 85.8 °F /  29.9 °C 41.4 °F /  5.2 °C 30.31in /  1026.3hPa ESE 6.0mph /  9.7km/h 11.0mph /  17.7km/h 21% 0.00in /  0mm 800.0 W/m2
13:38 86.0 °F /  30 °C 40.3 °F /  4.6 °C 30.30in /  1026hPa SE 4.0mph /  6.4km/h 9.0mph /  14.5km/h 20% 0.00in /  0mm 793.0 W/m2
13:44 85.8 °F /  29.9 °C 40.1 °F /  4.5 °C 30.31in /  1026.3hPa East 8.1mph /  13km/h 10.0mph /  16.1km/h 20% 0.00in /  0mm 775.0 W/m2
13:50 86.2 °F /  30.1 °C 40.5 °F /  4.7 °C 30.31in /  1026.3hPa NE 2.9mph /  4.7km/h 9.0mph /  14.5km/h 20% 0.00in /  0mm 768.0 W/m2
13:56 86.5 °F /  30.3 °C 40.6 °F /  4.8 °C 30.30in /  1026hPa ENE 2.9mph /  4.7km/h 6.0mph /  9.7km/h 20% 0.00in /  0mm 752.0 W/m2
14:02 86.5 °F /  30.3 °C 41.9 °F /  5.5 °C 30.30in /  1026hPa ESE 8.1mph /  13km/h 11.0mph /  17.7km/h 21% 0.00in /  0mm 740.0 W/m2
14:08 86.4 °F /  30.2 °C 41.9 °F /  5.5 °C 30.30in /  1026hPa ESE 2.9mph /  4.7km/h 6.0mph /  9.7km/h 21% 0.00in /  0mm 722.0 W/m2
14:14 86.4 °F /  30.2 °C 40.6 °F /  4.8 °C 30.30in /  1026hPa NNE 2.0mph /  3.2km/h 7.0mph /  11.3km/h 20% 0.00in /  0mm 705.0 W/m2
14:20 86.4 °F /  30.2 °C 40.6 °F /  4.8 °C 30.30in /  1026hPa NE 2.9mph /  4.7km/h 12.0mph /  19.3km/h 20% 0.00in /  0mm 693.0 W/m2
14:26 86.5 °F /  30.3 °C 40.6 °F /  4.8 °C 30.30in /  1026hPa ENE 2.9mph /  4.7km/h 9.0mph /  14.5km/h 20% 0.00in /  0mm 673.0 W/m2
14:32 86.2 °F /  30.1 °C 41.7 °F /  5.4 °C 30.30in /  1026hPa NE 6.9mph /  11.1km/h 11.0mph /  17.7km/h 21% 0.00in /  0mm 656.0 W/m2
14:38 86.0 °F /  30 °C 41.5 °F /  5.3 °C 30.30in /  1026hPa NNE 0.9mph /  1.4km/h 2.0mph /  3.2km/h 21% 0.00in /  0mm 638.0 W/m2
14:44 86.2 °F /  30.1 °C 41.7 °F /  5.4 °C 30.30in /  1026hPa East 6.0mph /  9.7km/h 11.0mph /  17.7km/h 21% 0.00in /  0mm 615.0 W/m2
14:50 86.4 °F /  30.2 °C 40.6 °F /  4.8 °C 30.30in /  1026hPa NE 2.9mph /  4.7km/h 9.0mph /  14.5km/h 20% 0.00in /  0mm 599.0 W/m2
14:56 86.4 °F /  30.2 °C 40.6 °F /  4.8 °C 30.29in /  1025.6hPa ENE 4.0mph /  6.4km/h 7.0mph /  11.3km/h 20% 0.00in /  0mm 584.0 W/m2
15:02 86.5 °F /  30.3 °C 40.6 °F /  4.8 °C 30.29in /  1025.6hPa NNE 2.0mph /  3.2km/h 10.0mph /  16.1km/h 20% 0.00in /  0mm 564.0 W/m2
15:08 86.7 °F /  30.4 °C 40.8 °F /  4.9 °C 30.29in /  1025.6hPa NE 2.9mph /  4.7km/h 10.0mph /  16.1km/h 20% 0.00in /  0mm 545.0 W/m2
15:14 86.7 °F /  30.4 °C 39.6 °F /  4.2 °C 30.29in /  1025.6hPa NE 4.9mph /  7.9km/h 5.0mph /  8km/h 19% 0.00in /  0mm 527.0 W/m2
15:20 86.4 °F /  30.2 °C 39.2 °F /  4 °C 30.29in /  1025.6hPa NE 0.9mph /  1.4km/h 3.0mph /  4.8km/h 19% 0.00in /  0mm 508.0 W/m2
15:26 86.4 °F /  30.2 °C 40.6 °F /  4.8 °C 30.29in /  1025.6hPa ENE 4.0mph /  6.4km/h 10.0mph /  16.1km/h 20% 0.00in /  0mm 485.0 W/m2
15:32 86.4 °F /  30.2 °C 39.2 °F /  4 °C 30.29in /  1025.6hPa NNW 4.0mph /  6.4km/h 7.0mph /  11.3km/h 19% 0.00in /  0mm 464.0 W/m2
15:38 86.2 °F /  30.1 °C 39.0 °F /  3.9 °C 30.29in /  1025.6hPa East 6.0mph /  9.7km/h 10.0mph /  16.1km/h 19% 0.00in /  0mm 443.0 W/m2
15:44 85.8 °F /  29.9 °C 40.1 °F /  4.5 °C 30.29in /  1025.6hPa East 2.9mph /  4.7km/h 6.0mph /  9.7km/h 20% 0.00in /  0mm 418.0 W/m2
15:50 86.2 °F /  30.1 °C 39.0 °F /  3.9 °C 30.29in /  1025.6hPa ESE 2.0mph /  3.2km/h 4.0mph /  6.4km/h 19% 0.00in /  0mm 397.0 W/m2
15:56 86.4 °F /  30.2 °C 39.2 °F /  4 °C 30.29in /  1025.6hPa East 4.9mph /  7.9km/h 6.0mph /  9.7km/h 19% 0.00in /  0mm 373.0 W/m2
16:02 86.2 °F /  30.1 °C 40.5 °F /  4.7 °C 30.29in /  1025.6hPa ENE 4.9mph /  7.9km/h 6.0mph /  9.7km/h 20% 0.00in /  0mm 352.0 W/m2
16:08 86.0 °F /  30 °C 39.0 °F /  3.9 °C 30.29in /  1025.6hPa NNE 6.9mph /  11.1km/h 8.0mph /  12.9km/h 19% 0.00in /  0mm 329.0 W/m2
16:14 85.5 °F /  29.7 °C 38.5 °F /  3.6 °C 30.29in /  1025.6hPa SE 0.9mph /  1.4km/h 5.0mph /  8km/h 19% 0.00in /  0mm 304.0 W/m2
16:20 85.5 °F /  29.7 °C 38.5 °F /  3.6 °C 30.30in /  1026hPa East 2.0mph /  3.2km/h 7.0mph /  11.3km/h 19% 0.00in /  0mm 281.0 W/m2
16:26 85.5 °F /  29.7 °C 37.0 °F /  2.8 °C 30.30in /  1026hPa Calm   5.0mph /  8km/h 18% 0.00in /  0mm 258.0 W/m2
16:32 85.3 °F /  29.6 °C 38.3 °F /  3.5 °C 30.30in /  1026hPa East 2.9mph /  4.7km/h 7.0mph /  11.3km/h 19% 0.00in /  0mm 236.0 W/m2
16:38 84.9 °F /  29.4 °C 39.4 °F /  4.1 °C 30.30in /  1026hPa NE 2.0mph /  3.2km/h 5.0mph /  8km/h 20% 0.00in /  0mm 207.0 W/m2
16:44 84.7 °F /  29.3 °C 36.5 °F /  2.5 °C 30.30in /  1026hPa NNE 4.0mph /  6.4km/h 5.0mph /  8km/h 18% 0.00in /  0mm 183.0 W/m2
16:50 84.2 °F /  29 °C 37.4 °F /  3 °C 30.30in /  1026hPa ENE 2.9mph /  4.7km/h 6.0mph /  9.7km/h 19% 0.00in /  0mm 158.0 W/m2
16:56 83.8 °F /  28.8 °C 38.5 °F /  3.6 °C 30.30in /  1026hPa Calm   1.0mph /  1.6km/h 20% 0.00in /  0mm 141.0 W/m2
17:02 83.7 °F /  28.7 °C 38.3 °F /  3.5 °C 30.30in /  1026hPa Calm   3.0mph /  4.8km/h 20% 0.00in /  0mm 72.0 W/m2
17:08 82.9 °F /  28.3 °C 39.0 °F /  3.9 °C 30.30in /  1026hPa ESE 2.0mph /  3.2km/h 5.0mph /  8km/h 21% 0.00in /  0mm 33.0 W/m2
17:14 82.6 °F /  28.1 °C 38.7 °F /  3.7 °C 30.31in /  1026.3hPa NE 0.9mph /  1.4km/h 5.0mph /  8km/h 21% 0.00in /  0mm 26.0 W/m2
17:20 81.9 °F /  27.7 °C 38.1 °F /  3.4 °C 30.31in /  1026.3hPa NNE 2.0mph /  3.2km/h 2.0mph /  3.2km/h 21% 0.00in /  0mm 21.0 W/m2
17:26 81.3 °F /  27.4 °C 37.6 °F /  3.1 °C 30.31in /  1026.3hPa Calm   1.0mph /  1.6km/h 21% 0.00in /  0mm 18.0 W/m2
17:32 81.0 °F /  27.2 °C 38.5 °F /  3.6 °C 30.31in /  1026.3hPa Calm   2.0mph /  3.2km/h 22% 0.00in /  0mm 12.0 W/m2
17:38 80.4 °F /  26.9 °C 39.2 °F /  4 °C 30.31in /  1026.3hPa Calm     23% 0.00in /  0mm 9.0 W/m2
17:44 80.1 °F /  26.7 °C 38.8 °F /  3.8 °C 30.31in /  1026.3hPa Calm     23% 0.00in /  0mm 5.0 W/m2
17:50 79.5 °F /  26.4 °C 38.5 °F /  3.6 °C 30.31in /  1026.3hPa Calm     23% 0.00in /  0mm 0.0 W/m2
17:56 79.0 °F /  26.1 °C 39.2 °F /  4 °C 30.32in /  1026.6hPa Calm     24% 0.00in /  0mm 0.0 W/m2
18:02 78.3 °F /  25.7 °C 39.6 °F /  4.2 °C 30.32in /  1026.6hPa Calm     25% 0.00in /  0mm 0.0 W/m2
18:08 77.5 °F /  25.3 °C 39.9 °F /  4.4 °C 30.32in /  1026.6hPa Calm     26% 0.00in /  0mm 0.0 W/m2
18:14 76.8 °F /  24.9 °C 39.4 °F /  4.1 °C 30.32in /  1026.6hPa Calm     26% 0.00in /  0mm 0.0 W/m2
18:20 75.9 °F /  24.4 °C 39.6 °F /  4.2 °C 30.32in /  1026.6hPa Calm     27% 0.00in /  0mm 0.0 W/m2
18:26 75.0 °F /  23.9 °C 39.7 °F /  4.3 °C 30.32in /  1026.6hPa Calm     28% 0.00in /  0mm 0.0 W/m2
18:32 74.3 °F /  23.5 °C 39.0 °F /  3.9 °C 30.33in /  1027hPa Calm     28% 0.00in /  0mm 0.0 W/m2
18:38 73.8 °F /  23.2 °C 39.6 °F /  4.2 °C 30.33in /  1027hPa Calm   1.0mph /  1.6km/h 29% 0.00in /  0mm 0.0 W/m2
18:44 73.0 °F /  22.8 °C 38.8 °F /  3.8 °C 30.34in /  1027.3hPa Calm     29% 0.00in /  0mm 0.0 W/m2
18:50 72.7 °F /  22.6 °C 39.4 °F /  4.1 °C 30.34in /  1027.3hPa Calm   1.0mph /  1.6km/h 30% 0.00in /  0mm 0.0 W/m2
18:56 72.1 °F /  22.3 °C 39.0 °F /  3.9 °C 30.34in /  1027.3hPa Calm   1.0mph /  1.6km/h 30% 0.00in /  0mm 0.0 W/m2
19:02 71.6 °F /  22 °C 39.4 °F /  4.1 °C 30.34in /  1027.3hPa Calm   1.0mph /  1.6km/h 31% 0.00in /  0mm 0.0 W/m2
19:08 71.2 °F /  21.8 °C 39.9 °F /  4.4 °C 30.35in /  1027.7hPa Calm     32% 0.00in /  0mm 0.0 W/m2
19:14 70.9 °F /  21.6 °C 39.6 °F /  4.2 °C 30.35in /  1027.7hPa Calm   2.0mph /  3.2km/h 32% 0.00in /  0mm 0.0 W/m2
19:20 70.3 °F /  21.3 °C 39.0 °F /  3.9 °C 30.35in /  1027.7hPa Calm   2.0mph /  3.2km/h 32% 0.00in /  0mm 0.0 W/m2
19:26 70.0 °F /  21.1 °C 38.8 °F /  3.8 °C 30.35in /  1027.7hPa Calm   2.0mph /  3.2km/h 32% 0.00in /  0mm 0.0 W/m2
19:32 69.6 °F /  20.9 °C 39.2 °F /  4 °C 30.35in /  1027.7hPa Calm     33% 0.00in /  0mm 0.0 W/m2
19:38 69.3 °F /  20.7 °C 39.7 °F /  4.3 °C 30.36in /  1028hPa Calm   3.0mph /  4.8km/h 34% 0.00in /  0mm 0.0 W/m2
19:44 69.1 °F /  20.6 °C 39.6 °F /  4.2 °C 30.36in /  1028hPa Calm   1.0mph /  1.6km/h 34% 0.00in /  0mm 0.0 W/m2
19:50 68.7 °F /  20.4 °C 39.9 °F /  4.4 °C 30.36in /  1028hPa Calm   1.0mph /  1.6km/h 35% 0.00in /  0mm 0.0 W/m2
19:56 68.4 °F /  20.2 °C 39.6 °F /  4.2 °C 30.37in /  1028.3hPa Calm   3.0mph /  4.8km/h 35% 0.00in /  0mm 0.0 W/m2
20:02 68.2 °F /  20.1 °C 39.6 °F /  4.2 °C 30.37in /  1028.3hPa Calm   2.0mph /  3.2km/h 35% 0.00in /  0mm 0.0 W/m2
20:08 67.8 °F /  19.9 °C 39.2 °F /  4 °C 30.37in /  1028.3hPa Calm   1.0mph /  1.6km/h 35% 0.00in /  0mm 0.0 W/m2
20:14 67.5 °F /  19.7 °C 39.6 °F /  4.2 °C 30.37in /  1028.3hPa Calm   1.0mph /  1.6km/h 36% 0.00in /  0mm 0.0 W/m2
20:18 67.5 °F /  19.7 °C 39.6 °F /  4.2 °C 30.37in /  1028.3hPa Calm   2.0mph /  3.2km/h 36% 0.00in /  0mm 0.0 W/m2
20:24 67.3 °F /  19.6 °C 39.4 °F /  4.1 °C 30.38in /  1028.7hPa Calm   1.0mph /  1.6km/h 36% 0.00in /  0mm 0.0 W/m2
20:30 66.9 °F /  19.4 °C 39.0 °F /  3.9 °C 30.38in /  1028.7hPa Calm   1.0mph /  1.6km/h 36% 0.00in /  0mm 0.0 W/m2
20:36 66.7 °F /  19.3 °C 39.6 °F /  4.2 °C 30.39in /  1029hPa Calm     37% 0.00in /  0mm 0.0 W/m2
20:42 66.6 °F /  19.2 °C 40.1 °F /  4.5 °C 30.39in /  1029hPa Calm     38% 0.00in /  0mm 0.0 W/m2
20:48 66.2 °F /  19 °C 39.9 °F /  4.4 °C 30.39in /  1029hPa ESE 0.9mph /  1.4km/h 2.0mph /  3.2km/h 38% 0.00in /  0mm 0.0 W/m2
20:54 66.0 °F /  18.9 °C 39.7 °F /  4.3 °C 30.39in /  1029hPa Calm   1.0mph /  1.6km/h 38% 0.00in /  0mm 0.0 W/m2
21:00 65.7 °F /  18.7 °C 39.4 °F /  4.1 °C 30.39in /  1029hPa Calm     38% 0.00in /  0mm 0.0 W/m2
21:06 65.5 °F /  18.6 °C 39.9 °F /  4.4 °C 30.40in /  1029.3hPa Calm     39% 0.00in /  0mm 0.0 W/m2
21:12 65.5 °F /  18.6 °C 39.9 °F /  4.4 °C 30.40in /  1029.3hPa Calm     39% 0.00in /  0mm 0.0 W/m2
21:18 65.1 °F /  18.4 °C 39.6 °F /  4.2 °C 30.40in /  1029.3hPa Calm     39% 0.00in /  0mm 0.0 W/m2
21:24 64.9 °F /  18.3 °C 39.4 °F /  4.1 °C 30.40in /  1029.3hPa Calm     39% 0.00in /  0mm 0.0 W/m2
21:30 64.8 °F /  18.2 °C 39.9 °F /  4.4 °C 30.40in /  1029.3hPa Calm     40% 0.00in /  0mm 0.0 W/m2
21:36 64.6 °F /  18.1 °C 39.0 °F /  3.9 °C 30.40in /  1029.3hPa Calm   1.0mph /  1.6km/h 39% 0.00in /  0mm 0.0 W/m2
21:42 64.6 °F /  18.1 °C 39.0 °F /  3.9 °C 30.40in /  1029.3hPa Calm   1.0mph /  1.6km/h 39% 0.00in /  0mm 0.0 W/m2
21:48 64.6 °F /  18.1 °C 39.0 °F /  3.9 °C 30.40in /  1029.3hPa Calm     39% 0.00in /  0mm 0.0 W/m2
21:54 64.6 °F /  18.1 °C 39.0 °F /  3.9 °C 30.40in /  1029.3hPa Calm   1.0mph /  1.6km/h 39% 0.00in /  0mm 0.0 W/m2
22:00 64.4 °F /  18 °C 38.8 °F /  3.8 °C 30.40in /  1029.3hPa Calm   1.0mph /  1.6km/h 39% 0.00in /  0mm 0.0 W/m2
22:06 64.2 °F /  17.9 °C 38.7 °F /  3.7 °C 30.40in /  1029.3hPa Calm     39% 0.00in /  0mm 0.0 W/m2
22:12 64.0 °F /  17.8 °C 38.7 °F /  3.7 °C 30.40in /  1029.3hPa Calm   1.0mph /  1.6km/h 39% 0.00in /  0mm 0.0 W/m2
22:18 64.0 °F /  17.8 °C 38.7 °F /  3.7 °C 30.40in /  1029.3hPa Calm   2.0mph /  3.2km/h 39% 0.00in /  0mm 0.0 W/m2
22:24 63.9 °F /  17.7 °C 39.0 °F /  3.9 °C 30.40in /  1029.3hPa Calm     40% 0.00in /  0mm 0.0 W/m2
22:30 63.7 °F /  17.6 °C 38.8 °F /  3.8 °C 30.40in /  1029.3hPa Calm   1.0mph /  1.6km/h 40% 0.00in /  0mm 0.0 W/m2
22:36 63.3 °F /  17.4 °C 39.2 °F /  4 °C 30.40in /  1029.3hPa Calm   1.0mph /  1.6km/h 41% 0.00in /  0mm 0.0 W/m2
22:42 63.1 °F /  17.3 °C 39.0 °F /  3.9 °C 30.40in /  1029.3hPa Calm   2.0mph /  3.2km/h 41% 0.00in /  0mm 0.0 W/m2
22:48 63.0 °F /  17.2 °C 38.8 °F /  3.8 °C 30.40in /  1029.3hPa Calm   2.0mph /  3.2km/h 41% 0.00in /  0mm 0.0 W/m2
22:54 62.6 °F /  17 °C 39.2 °F /  4 °C 30.40in /  1029.3hPa Calm   2.0mph /  3.2km/h 42% 0.00in /  0mm 0.0 W/m2
23:00 62.2 °F /  16.8 °C 38.8 °F /  3.8 °C 30.40in /  1029.3hPa Calm   1.0mph /  1.6km/h 42% 0.00in /  0mm 0.0 W/m2
23:06 62.1 °F /  16.7 °C 39.4 °F /  4.1 °C 30.40in /  1029.3hPa ENE 0.9mph /  1.4km/h 2.0mph /  3.2km/h 43% 0.00in /  0mm 0.0 W/m2
23:12 62.1 °F /  16.7 °C 39.4 °F /  4.1 °C 30.40in /  1029.3hPa Calm   3.0mph /  4.8km/h 43% 0.00in /  0mm 0.0 W/m2
23:19 61.9 °F /  16.6 °C 39.2 °F /  4 °C 30.39in /  1029hPa Calm   2.0mph /  3.2km/h 43% 0.00in /  0mm 0.0 W/m2
23:25 61.9 °F /  16.6 °C 39.2 °F /  4 °C 30.40in /  1029.3hPa ENE 0.9mph /  1.4km/h 4.0mph /  6.4km/h 43% 0.00in /  0mm 0.0 W/m2
23:31 61.7 °F /  16.5 °C 39.0 °F /  3.9 °C 30.40in /  1029.3hPa Calm   3.0mph /  4.8km/h 43% 0.00in /  0mm 0.0 W/m2
23:37 61.5 °F /  16.4 °C 39.4 °F /  4.1 °C 30.39in /  1029hPa NE 2.0mph /  3.2km/h 2.0mph /  3.2km/h 44% 0.00in /  0mm 0.0 W/m2
23:43 61.2 °F /  16.2 °C 39.0 °F /  3.9 °C 30.39in /  1029hPa Calm   3.0mph /  4.8km/h 44% 0.00in /  0mm 0.0 W/m2
23:49 61.0 °F /  16.1 °C 39.6 °F /  4.2 °C 30.39in /  1029hPa Calm   1.0mph /  1.6km/h 45% 0.00in /  0mm 0.0 W/m2
23:55 61.0 °F /  16.1 °C 39.6 °F /  4.2 °C 30.39in /  1029hPa Calm   1.0mph /  1.6km/h 45% 0.00in /  0mm 0.0 W/m2
Olympia, Windhoek, Namibia
Compliments of Weather Underground - 3 mb